Bedford, Texas
Current Conditions -  °F | °C
As of 9:53 PM on Sunday 23 Nov 2014 (Local Time) from KDFW Reporting Station
Scattered Clouds Scattered Clouds  
Wind Chill: 50°   Ceiling: Unl
Heat Index: 50°   Visibility: 10mi
Dew Point: 39°   Wind: 22mph
Humidity: 66%   Direction: 320°NW
Pressure: 29.77"   Gusts: 32mph
Location:  32.84°N, 97.14°W
Report Text: KDFW 240353Z 32019G28KT 10SM SCT034 10/04 A2977 RMK AO2 PK WND 32032/0302 SLP076 T01000039 $
Loading
Personal Weather Stations






























Interactive Weather Map New forecast layout! Learn more

10-Day Weather Forecast

Advertisements
Track Severe Weather on mobile